Glenwood, MN

11:19 AM CST on December 05, 2016 (GMT -0600)
Glenwood Municipal

Weather History for KGHW - June, 2012

Change the Weather History Date:

Wednesday, June 27, 2012

  Actual Average Record
Temperature  
Mean Temperature 74 °F -  
Max Temperature 87 °F 80 °F 93 °F (1961)
Min Temperature 62 °F 54 °F 35 °F (2008)
Cooling Degree Days 10    
Growing Degree Days 24 (Base 50)    
Moisture  
Dew Point 64 °F    
Average Humidity 68    
Maximum Humidity 83    
Minimum Humidity 55    
Precipitation  
Precipitation 0.00 in - - ()
Sea Level Pressure  
Sea Level Pressure 29.69 in    
Wind  
Wind Speed 7 mph (SE)    
Max Wind Speed 13 mph    
Max Gust Speed 20 mph    
Visibility 10 miles    
Events Rain , Thunderstorm    
Averages and records for this station are not official NWS values.
T = Trace of Precipitation, MM = Missing Value Source: NWS Daily Summary

Daily Weather History Graph

Daily Weather History Graph

Search for Another Location

Airport or City:

Trip Planner

Search our weather history database for the weather conditions in past years. The results will help you decide how hot, cold, wet, or windy it might be!

Date:

Astronomy

Jun. 27, 2012 Rise Set
Actual Time 5:34 AM CDT 9:14 PM CDT
Civil Twilight 4:56 AM CDT 9:52 PM CDT
Nautical Twilight 4:05 AM CDT 10:43 PM CDT
Astronomical Twilight 2:55 AM CDT 11:52 PM CDT
Moon 2:27 PM CDT (6/27) 12:49 AM CDT (6/27)
Length of Visible Light 16h 56m
Length of Day
15h 40m
First Quarter, 56% of the Moon is Illuminated
Jun 27
First Quarter
Jul 3
Full
Jul 10
Last Quarter
Jul 18
New
Jul 26
First Quarter

Hourly Weather History & Observations

Time (CDT) Temp. Heat Index Dew Point Humidity Pressure Visibility Wind Dir Wind Speed Gust Speed Precip Events Conditions
12:14 AM 66.2 °F - 55.4 °F 68% 29.69 in 10.0 mi SE 9.2 mph - N/A   Clear
12:33 AM 66.2 °F - 55.4 °F 68% 29.67 in 10.0 mi SE 10.4 mph - N/A   Clear
12:54 AM 66.2 °F - 57.2 °F 73% 29.67 in 10.0 mi SE 10.4 mph - N/A   Clear
1:13 AM 66.2 °F - 57.2 °F 73% 29.66 in 10.0 mi SE 9.2 mph - N/A   Clear
1:34 AM 68.0 °F - 57.2 °F 68% 29.66 in 10.0 mi SE 8.1 mph - N/A   Clear
1:53 AM 68.0 °F - 57.2 °F 68% 29.66 in 10.0 mi SE 6.9 mph - N/A   Clear
2:14 AM 66.2 °F - 57.2 °F 73% 29.65 in 10.0 mi SE 8.1 mph - N/A   Clear
2:34 AM 66.2 °F - 57.2 °F 73% 29.64 in 10.0 mi SE 6.9 mph - N/A   Clear
2:54 AM 66.2 °F - 57.2 °F 73% 29.63 in 10.0 mi SE 8.1 mph - N/A   Clear
3:14 AM 68.0 °F - 57.2 °F 68% 29.63 in 10.0 mi SE 8.1 mph - N/A   Clear
3:33 AM 68.0 °F - 57.2 °F 68% 29.63 in 10.0 mi SE 5.8 mph - N/A   Clear
3:54 AM 66.2 °F - 57.2 °F 73% 29.63 in 10.0 mi SSE 8.1 mph - N/A   Clear
4:14 AM 66.2 °F - 57.2 °F 73% 29.62 in 10.0 mi SSE 9.2 mph - N/A   Clear
4:34 AM 66.2 °F - 57.2 °F 73% 29.62 in 10.0 mi SE 5.8 mph - N/A   Clear
4:54 AM 64.4 °F - 57.2 °F 77% 29.62 in 10.0 mi SE 6.9 mph - N/A   Clear
5:14 AM 64.4 °F - 57.2 °F 77% 29.62 in 10.0 mi SE 5.8 mph - N/A   Clear
5:34 AM 62.6 °F - 57.2 °F 82% 29.62 in 10.0 mi ESE 5.8 mph - N/A   Clear
5:54 AM 62.6 °F - 57.2 °F 82% 29.62 in 10.0 mi East 4.6 mph - N/A   Clear
6:14 AM 62.6 °F - 55.4 °F 77% 29.62 in 10.0 mi ESE 6.9 mph - N/A   Clear
6:34 AM 64.4 °F - 55.4 °F 73% 29.62 in 10.0 mi ESE 6.9 mph - N/A   Clear
6:54 AM 66.2 °F - 57.2 °F 73% 29.63 in 10.0 mi ESE 5.8 mph - N/A   Clear
7:14 AM 66.2 °F - 57.2 °F 73% 29.66 in 10.0 mi ENE 3.5 mph - N/A   Clear
7:54 AM 69.8 °F - 57.2 °F 64% 29.66 in 10.0 mi East 10.4 mph - N/A   Clear
8:14 AM 71.6 °F - 57.2 °F 60% 29.67 in 10.0 mi ESE 8.1 mph - N/A   Clear
8:34 AM 71.6 °F - 57.2 °F 60% 29.65 in 10.0 mi ESE 10.4 mph - N/A   Clear
8:54 AM 73.4 °F - 59.0 °F 61% 29.66 in 10.0 mi SE 9.2 mph - N/A   Clear
9:14 AM 75.2 °F - 60.8 °F 61% 29.65 in 10.0 mi SE 11.5 mph - N/A   Clear
9:34 AM 75.2 °F - 60.8 °F 61% 29.66 in 10.0 mi SE 9.2 mph - N/A   Clear
9:54 AM 75.2 °F - 60.8 °F 61% 29.65 in 10.0 mi SE 6.9 mph - N/A   Clear
10:14 AM 75.2 °F - 62.6 °F 65% 29.65 in 10.0 mi SSE 9.2 mph - N/A   Clear
10:34 AM 78.8 °F - 62.6 °F 57% 29.64 in 10.0 mi SE 6.9 mph - N/A   Clear
10:54 AM 80.6 °F 82.3 °F 64.4 °F 58% 29.64 in 10.0 mi SSE 8.1 mph - N/A   Clear
11:14 AM 80.6 °F 82.3 °F 64.4 °F 58% 29.64 in 10.0 mi SE 8.1 mph - N/A   Clear
11:34 AM 80.6 °F 82.3 °F 64.4 °F 58% 29.66 in 10.0 mi SSE 4.6 mph - N/A   Clear
11:54 AM 78.8 °F - 66.2 °F 65% 29.65 in 10.0 mi SSE 3.5 mph - N/A   Clear
12:14 PM 82.4 °F 84.6 °F 66.2 °F 58% 29.66 in 10.0 mi South 3.5 mph - N/A   Clear
12:34 PM 82.4 °F 84.6 °F 66.2 °F 58% 29.66 in 10.0 mi SSW 3.5 mph - N/A   Clear
12:54 PM 84.2 °F 86.6 °F 66.2 °F 55% 29.67 in 10.0 mi WNW 4.6 mph - N/A   Clear
1:13 PM 84.2 °F 86.6 °F 66.2 °F 55% 29.69 in 10.0 mi WNW 5.8 mph - N/A   Clear
1:34 PM 84.2 °F 87.3 °F 68.0 °F 58% 29.71 in 10.0 mi WSW 5.8 mph - N/A Thunderstorm Clear
1:54 PM 84.2 °F 87.3 °F 68.0 °F 58% 29.69 in 7.0 mi NW 3.5 mph - N/A   Clear
2:13 PM 80.6 °F 83.9 °F 69.8 °F 70% 29.70 in 10.0 mi Calm Calm - N/A Thunderstorm Clear
2:34 PM 80.6 °F 83.9 °F 69.8 °F 70% 29.68 in 10.0 mi ENE 5.8 mph - N/A Rain Light Rain
2:54 PM 82.4 °F 86.3 °F 69.8 °F 66% 29.68 in 10.0 mi Calm Calm - N/A   Clear
3:14 PM 86.0 °F 90.4 °F 69.8 °F 58% 29.66 in 10.0 mi ENE 5.8 mph - N/A   Clear
3:34 PM 87.8 °F 93.8 °F 71.6 °F 58% 29.67 in 10.0 mi East 4.6 mph - N/A   Clear
3:54 PM 87.8 °F 92.6 °F 69.8 °F 55% 29.70 in 10.0 mi Calm Calm - N/A   Clear
4:14 PM 87.8 °F 92.6 °F 69.8 °F 55% 29.72 in 10.0 mi WSW 5.8 mph - N/A   Clear
4:34 PM 87.8 °F 92.6 °F 69.8 °F 55% 29.72 in 10.0 mi West 10.4 mph - N/A   Clear
4:53 PM 86.0 °F 90.4 °F 69.8 °F 58% 29.72 in 10.0 mi SW 6.9 mph - N/A   Clear
5:14 PM 87.8 °F 92.6 °F 69.8 °F 55% 29.72 in 10.0 mi WSW 4.6 mph - N/A   Scattered Clouds
5:34 PM 87.8 °F 93.8 °F 71.6 °F 58% 29.71 in 10.0 mi Calm Calm - N/A   Scattered Clouds
5:54 PM 86.0 °F 91.8 °F 71.6 °F 62% 29.71 in 10.0 mi Calm Calm - N/A   Scattered Clouds
6:14 PM 84.2 °F 89.6 °F 71.6 °F 66% 29.70 in 10.0 mi Calm Calm - N/A   Scattered Clouds
6:34 PM 84.2 °F 89.6 °F 71.6 °F 66% 29.72 in 10.0 mi NW 5.8 mph - N/A   Scattered Clouds
6:54 PM 82.4 °F 87.2 °F 71.6 °F 70% 29.73 in 10.0 mi NW 12.7 mph - N/A   Mostly Cloudy
7:14 PM 80.6 °F 84.6 °F 71.6 °F 74% 29.75 in 10.0 mi NW 12.7 mph 19.6 mph N/A   Mostly Cloudy
7:34 PM 80.6 °F 83.9 °F 69.8 °F 70% 29.75 in 10.0 mi NW 9.2 mph - N/A   Mostly Cloudy
7:53 PM 80.6 °F 83.9 °F 69.8 °F 70% 29.76 in 10.0 mi NW 8.1 mph - N/A   Overcast
8:14 PM 80.6 °F 83.9 °F 69.8 °F 70% 29.75 in 10.0 mi NNW 8.1 mph - N/A   Overcast
8:34 PM - - - N/A% 29.76 in 10.0 mi NNW 8.1 mph - N/A   Mostly Cloudy
8:54 PM 78.8 °F - 69.8 °F 74% 29.75 in 10.0 mi North 5.8 mph - N/A   Clear
9:14 PM 77.0 °F - 69.8 °F 78% 29.77 in 10.0 mi NNW 4.6 mph - N/A   Clear
9:33 PM 75.2 °F - 69.8 °F 83% 29.79 in 10.0 mi WNW 6.9 mph - N/A   Clear
9:54 PM 75.2 °F - 69.8 °F 83% 29.80 in 10.0 mi WNW 8.1 mph - N/A   Clear
10:13 PM 75.2 °F - 69.8 °F 83% 29.81 in 10.0 mi NW 6.9 mph - N/A   Scattered Clouds
10:34 PM 75.2 °F - 69.8 °F 83% 29.81 in 10.0 mi NNW 8.1 mph - N/A   Scattered Clouds
10:54 PM 75.2 °F - 69.8 °F 83% 29.80 in 10.0 mi NNE 3.5 mph - N/A   Clear
11:14 PM 75.2 °F - 69.8 °F 83% 29.80 in 10.0 mi North 4.6 mph - N/A   Clear
11:34 PM 75.2 °F - 69.8 °F 83% 29.81 in 10.0 mi WNW 3.5 mph - N/A   Clear
11:53 PM 73.4 °F - 66.2 °F 78% 29.83 in 10.0 mi NW 8.1 mph - N/A   Clear